sensor_id;sensor_type;location;lat;lon;timestamp;temperature;humidity
84335;DHT22;74512;51.190;3.198;2024-02-04T00:00:27;12.00;1.00
84335;DHT22;74512;51.190;3.198;2024-02-04T00:02:53;11.90;1.00
84335;DHT22;74512;51.190;3.198;2024-02-04T00:05:19;12.00;1.00
84335;DHT22;74512;51.190;3.198;2024-02-04T00:07:45;12.00;1.00
84335;DHT22;74512;51.190;3.198;2024-02-04T00:10:11;12.10;1.00
84335;DHT22;74512;51.190;3.198;2024-02-04T00:12:37;12.10;1.00
84335;DHT22;74512;51.190;3.198;2024-02-04T00:15:03;12.00;1.00
84335;DHT22;74512;51.190;3.198;2024-02-04T00:17:31;12.10;1.00
84335;DHT22;74512;51.190;3.198;2024-02-04T00:20:00;12.00;1.00
84335;DHT22;74512;51.190;3.198;2024-02-04T00:22:27;12.00;1.00
84335;DHT22;74512;51.190;3.198;2024-02-04T00:24:53;12.00;1.00
84335;DHT22;74512;51.190;3.198;2024-02-04T00:27:18;12.00;1.00
84335;DHT22;74512;51.190;3.198;2024-02-04T00:29:44;11.90;1.00
84335;DHT22;74512;51.190;3.198;2024-02-04T00:32:10;11.90;1.00
84335;DHT22;74512;51.190;3.198;2024-02-04T00:34:36;12.00;1.00
84335;DHT22;74512;51.190;3.198;2024-02-04T00:37:01;11.90;1.00
84335;DHT22;74512;51.190;3.198;2024-02-04T00:39:28;12.10;1.00
84335;DHT22;74512;51.190;3.198;2024-02-04T00:41:53;12.00;1.00
84335;DHT22;74512;51.190;3.198;2024-02-04T00:44:19;11.90;1.00
84335;DHT22;74512;51.190;3.198;2024-02-04T00:46:44;11.90;1.00
84335;DHT22;74512;51.190;3.198;2024-02-04T00:49:10;11.90;1.00
84335;DHT22;74512;51.190;3.198;2024-02-04T00:51:36;12.10;1.00
84335;DHT22;74512;51.190;3.198;2024-02-04T00:54:01;12.10;1.00
84335;DHT22;74512;51.190;3.198;2024-02-04T00:56:27;12.00;1.00
84335;DHT22;74512;51.190;3.198;2024-02-04T00:58:53;12.00;1.00
84335;DHT22;74512;51.190;3.198;2024-02-04T01:01:18;12.00;1.00
84335;DHT22;74512;51.190;3.198;2024-02-04T01:03:48;12.10;1.00
84335;DHT22;74512;51.190;3.198;2024-02-04T01:06:14;12.10;1.00
84335;DHT22;74512;51.190;3.198;2024-02-04T01:08:39;12.00;1.00
84335;DHT22;74512;51.190;3.198;2024-02-04T01:11:05;12.10;1.00
84335;DHT22;74512;51.190;3.198;2024-02-04T01:13:32;12.10;1.00
84335;DHT22;74512;51.190;3.198;2024-02-04T01:15:57;12.00;1.00
84335;DHT22;74512;51.190;3.198;2024-02-04T01:18:23;12.00;1.00
84335;DHT22;74512;51.190;3.198;2024-02-04T01:20:49;12.10;1.00
84335;DHT22;74512;51.190;3.198;2024-02-04T01:23:14;12.00;1.00
84335;DHT22;74512;51.190;3.198;2024-02-04T01:25:43;12.10;1.00
84335;DHT22;74512;51.190;3.198;2024-02-04T01:28:09;12.10;1.00
84335;DHT22;74512;51.190;3.198;2024-02-04T01:30:35;12.10;1.00
84335;DHT22;74512;51.190;3.198;2024-02-04T01:33:00;12.10;1.00
84335;DHT22;74512;51.190;3.198;2024-02-04T01:35:26;12.10;1.00
84335;DHT22;74512;51.190;3.198;2024-02-04T01:37:52;12.10;1.00
84335;DHT22;74512;51.190;3.198;2024-02-04T01:40:17;12.20;1.00
84335;DHT22;74512;51.190;3.198;2024-02-04T01:42:43;12.20;1.00
84335;DHT22;74512;51.190;3.198;2024-02-04T01:45:09;12.20;1.00
84335;DHT22;74512;51.190;3.198;2024-02-04T01:47:35;12.10;1.00
84335;DHT22;74512;51.190;3.198;2024-02-04T01:50:01;12.20;1.00
84335;DHT22;74512;51.190;3.198;2024-02-04T01:52:30;12.10;1.00
84335;DHT22;74512;51.190;3.198;2024-02-04T01:54:56;12.00;1.00
84335;DHT22;74512;51.190;3.198;2024-02-04T01:57:23;12.00;1.00
84335;DHT22;74512;51.190;3.198;2024-02-04T01:59:49;12.00;1.00
84335;DHT22;74512;51.190;3.198;2024-02-04T02:02:17;12.00;1.00
84335;DHT22;74512;51.190;3.198;2024-02-04T02:04:43;12.10;1.00
84335;DHT22;74512;51.190;3.198;2024-02-04T02:07:09;12.10;1.00
84335;DHT22;74512;51.190;3.198;2024-02-04T02:09:35;12.10;1.00
84335;DHT22;74512;51.190;3.198;2024-02-04T02:12:11;12.00;1.00
84335;DHT22;74512;51.190;3.198;2024-02-04T02:14:41;12.00;1.00
84335;DHT22;74512;51.190;3.198;2024-02-04T02:17:11;12.10;1.00
84335;DHT22;74512;51.190;3.198;2024-02-04T02:20:04;12.10;1.00
84335;DHT22;74512;51.190;3.198;2024-02-04T02:25:38;11.90;1.00
84335;DHT22;74512;51.190;3.198;2024-02-04T02:28:04;11.90;1.00
84335;DHT22;74512;51.190;3.198;2024-02-04T02:30:29;11.90;1.00
84335;DHT22;74512;51.190;3.198;2024-02-04T02:32:56;11.90;1.00
84335;DHT22;74512;51.190;3.198;2024-02-04T02:35:22;11.90;1.00
84335;DHT22;74512;51.190;3.198;2024-02-04T02:38:15;11.90;1.00
84335;DHT22;74512;51.190;3.198;2024-02-04T02:40:47;11.90;1.00
84335;DHT22;74512;51.190;3.198;2024-02-04T02:43:13;11.90;1.00
84335;DHT22;74512;51.190;3.198;2024-02-04T02:45:41;12.00;1.00
84335;DHT22;74512;51.190;3.198;2024-02-04T02:48:07;11.90;1.00
84335;DHT22;74512;51.190;3.198;2024-02-04T02:50:38;11.90;1.00
84335;DHT22;74512;51.190;3.198;2024-02-04T02:53:04;11.90;1.00
84335;DHT22;74512;51.190;3.198;2024-02-04T02:55:30;12.00;1.00
84335;DHT22;74512;51.190;3.198;2024-02-04T02:57:56;11.90;1.00
84335;DHT22;74512;51.190;3.198;2024-02-04T03:00:21;12.00;1.00
84335;DHT22;74512;51.190;3.198;2024-02-04T03:02:47;11.90;1.00
84335;DHT22;74512;51.190;3.198;2024-02-04T03:05:15;12.00;1.00
84335;DHT22;74512;51.190;3.198;2024-02-04T03:07:41;12.00;1.00
84335;DHT22;74512;51.190;3.198;2024-02-04T03:10:08;12.00;1.00
84335;DHT22;74512;51.190;3.198;2024-02-04T03:12:33;12.00;1.00
84335;DHT22;74512;51.190;3.198;2024-02-04T03:14:59;12.00;1.00
84335;DHT22;74512;51.190;3.198;2024-02-04T03:17:25;12.00;1.00
84335;DHT22;74512;51.190;3.198;2024-02-04T03:19:50;12.00;1.00
84335;DHT22;74512;51.190;3.198;2024-02-04T03:22:17;12.00;1.00
84335;DHT22;74512;51.190;3.198;2024-02-04T03:24:43;12.00;1.00
84335;DHT22;74512;51.190;3.198;2024-02-04T03:27:09;12.00;1.00
84335;DHT22;74512;51.190;3.198;2024-02-04T03:29:35;12.00;1.00
84335;DHT22;74512;51.190;3.198;2024-02-04T03:32:01;12.00;1.00
84335;DHT22;74512;51.190;3.198;2024-02-04T03:34:27;12.10;1.00
84335;DHT22;74512;51.190;3.198;2024-02-04T03:36:53;12.10;1.00
84335;DHT22;74512;51.190;3.198;2024-02-04T03:39:18;12.10;1.00
84335;DHT22;74512;51.190;3.198;2024-02-04T03:41:44;12.00;1.00
84335;DHT22;74512;51.190;3.198;2024-02-04T03:44:09;12.00;1.00
84335;DHT22;74512;51.190;3.198;2024-02-04T03:46:35;12.00;1.00
84335;DHT22;74512;51.190;3.198;2024-02-04T03:49:01;12.00;1.00
84335;DHT22;74512;51.190;3.198;2024-02-04T03:51:27;12.00;1.00
84335;DHT22;74512;51.190;3.198;2024-02-04T03:53:53;11.90;1.00
84335;DHT22;74512;51.190;3.198;2024-02-04T03:56:18;12.10;1.00
84335;DHT22;74512;51.190;3.198;2024-02-04T03:58:44;11.90;1.00
84335;DHT22;74512;51.190;3.198;2024-02-04T04:01:10;11.90;1.00
84335;DHT22;74512;51.190;3.198;2024-02-04T04:03:39;12.00;1.00
84335;DHT22;74512;51.190;3.198;2024-02-04T04:06:05;12.00;1.00
84335;DHT22;74512;51.190;3.198;2024-02-04T04:08:31;11.90;1.00
84335;DHT22;74512;51.190;3.198;2024-02-04T04:10:57;12.00;1.00
84335;DHT22;74512;51.190;3.198;2024-02-04T04:13:23;12.00;1.00
84335;DHT22;74512;51.190;3.198;2024-02-04T04:15:50;12.00;1.00
84335;DHT22;74512;51.190;3.198;2024-02-04T04:18:16;12.10;1.00
84335;DHT22;74512;51.190;3.198;2024-02-04T04:20:41;12.10;1.00
84335;DHT22;74512;51.190;3.198;2024-02-04T04:23:07;12.10;1.00
84335;DHT22;74512;51.190;3.198;2024-02-04T04:25:33;12.00;1.00
84335;DHT22;74512;51.190;3.198;2024-02-04T04:27:59;12.00;1.00
84335;DHT22;74512;51.190;3.198;2024-02-04T04:30:24;12.10;1.00
84335;DHT22;74512;51.190;3.198;2024-02-04T04:32:50;12.00;1.00
84335;DHT22;74512;51.190;3.198;2024-02-04T04:35:16;12.00;1.00
84335;DHT22;74512;51.190;3.198;2024-02-04T04:37:42;12.00;1.00
84335;DHT22;74512;51.190;3.198;2024-02-04T04:40:08;12.00;1.00
84335;DHT22;74512;51.190;3.198;2024-02-04T04:42:33;12.00;1.00
84335;DHT22;74512;51.190;3.198;2024-02-04T04:44:59;12.10;1.00
84335;DHT22;74512;51.190;3.198;2024-02-04T04:47:25;12.00;1.00
84335;DHT22;74512;51.190;3.198;2024-02-04T04:49:50;12.00;1.00
84335;DHT22;74512;51.190;3.198;2024-02-04T04:52:16;12.10;1.00
84335;DHT22;74512;51.190;3.198;2024-02-04T04:54:42;12.10;1.00
84335;DHT22;74512;51.190;3.198;2024-02-04T04:57:08;12.00;1.00
84335;DHT22;74512;51.190;3.198;2024-02-04T04:59:34;12.10;1.00
84335;DHT22;74512;51.190;3.198;2024-02-04T05:02:01;12.00;1.00
84335;DHT22;74512;51.190;3.198;2024-02-04T05:04:27;11.90;1.00
84335;DHT22;74512;51.190;3.198;2024-02-04T05:06:53;11.90;1.00
84335;DHT22;74512;51.190;3.198;2024-02-04T05:09:18;11.90;1.00
84335;DHT22;74512;51.190;3.198;2024-02-04T05:11:44;11.80;1.00
84335;DHT22;74512;51.190;3.198;2024-02-04T05:14:10;11.70;1.00
84335;DHT22;74512;51.190;3.198;2024-02-04T05:16:35;11.70;1.00
84335;DHT22;74512;51.190;3.198;2024-02-04T05:19:02;11.60;1.00
84335;DHT22;74512;51.190;3.198;2024-02-04T05:21:28;11.70;1.00
84335;DHT22;74512;51.190;3.198;2024-02-04T05:23:54;11.70;1.00
84335;DHT22;74512;51.190;3.198;2024-02-04T05:26:20;11.70;1.00
84335;DHT22;74512;51.190;3.198;2024-02-04T05:28:46;11.70;1.00
84335;DHT22;74512;51.190;3.198;2024-02-04T05:31:11;11.70;1.00
84335;DHT22;74512;51.190;3.198;2024-02-04T05:33:37;11.70;1.00
84335;DHT22;74512;51.190;3.198;2024-02-04T05:36:03;11.60;1.00
84335;DHT22;74512;51.190;3.198;2024-02-04T05:38:30;11.70;1.00
84335;DHT22;74512;51.190;3.198;2024-02-04T05:40:55;11.80;1.00
84335;DHT22;74512;51.190;3.198;2024-02-04T05:43:21;11.90;1.00
84335;DHT22;74512;51.190;3.198;2024-02-04T05:45:47;11.90;1.00
84335;DHT22;74512;51.190;3.198;2024-02-04T05:48:12;11.80;1.00
84335;DHT22;74512;51.190;3.198;2024-02-04T05:50:39;11.70;1.00
84335;DHT22;74512;51.190;3.198;2024-02-04T05:53:04;11.80;1.00
84335;DHT22;74512;51.190;3.198;2024-02-04T05:55:30;11.80;1.00
84335;DHT22;74512;51.190;3.198;2024-02-04T05:57:56;11.80;1.00
84335;DHT22;74512;51.190;3.198;2024-02-04T06:00:23;11.90;1.00
84335;DHT22;74512;51.190;3.198;2024-02-04T06:02:49;11.90;1.00
84335;DHT22;74512;51.190;3.198;2024-02-04T06:05:15;11.90;1.00
84335;DHT22;74512;51.190;3.198;2024-02-04T06:07:42;11.90;1.00
84335;DHT22;74512;51.190;3.198;2024-02-04T06:10:11;11.90;1.00
84335;DHT22;74512;51.190;3.198;2024-02-04T06:12:37;11.90;1.00
84335;DHT22;74512;51.190;3.198;2024-02-04T06:15:16;11.90;1.00
84335;DHT22;74512;51.190;3.198;2024-02-04T06:17:42;12.00;1.00
84335;DHT22;74512;51.190;3.198;2024-02-04T06:20:08;12.00;1.00
84335;DHT22;74512;51.190;3.198;2024-02-04T06:22:35;12.00;1.00
84335;DHT22;74512;51.190;3.198;2024-02-04T06:25:01;12.00;1.00
84335;DHT22;74512;51.190;3.198;2024-02-04T06:27:27;12.00;1.00
84335;DHT22;74512;51.190;3.198;2024-02-04T06:29:53;12.00;1.00
84335;DHT22;74512;51.190;3.198;2024-02-04T06:32:19;12.10;1.00
84335;DHT22;74512;51.190;3.198;2024-02-04T06:34:46;12.20;1.00
84335;DHT22;74512;51.190;3.198;2024-02-04T06:37:11;12.10;1.00
84335;DHT22;74512;51.190;3.198;2024-02-04T06:39:38;12.10;1.00
84335;DHT22;74512;51.190;3.198;2024-02-04T06:42:04;12.10;1.00
84335;DHT22;74512;51.190;3.198;2024-02-04T06:44:29;12.20;1.00
84335;DHT22;74512;51.190;3.198;2024-02-04T06:46:55;12.10;1.00
84335;DHT22;74512;51.190;3.198;2024-02-04T06:49:21;12.00;1.00
84335;DHT22;74512;51.190;3.198;2024-02-04T06:51:46;11.90;1.00
84335;DHT22;74512;51.190;3.198;2024-02-04T06:54:13;11.90;1.00
84335;DHT22;74512;51.190;3.198;2024-02-04T06:56:39;11.90;1.00
84335;DHT22;74512;51.190;3.198;2024-02-04T06:59:05;11.90;1.00
84335;DHT22;74512;51.190;3.198;2024-02-04T07:01:32;11.90;1.00
84335;DHT22;74512;51.190;3.198;2024-02-04T07:03:57;11.90;1.00
84335;DHT22;74512;51.190;3.198;2024-02-04T07:06:23;11.90;1.00
84335;DHT22;74512;51.190;3.198;2024-02-04T07:08:49;11.80;1.00
84335;DHT22;74512;51.190;3.198;2024-02-04T07:11:15;11.90;1.00
84335;DHT22;74512;51.190;3.198;2024-02-04T07:13:41;11.90;1.00
84335;DHT22;74512;51.190;3.198;2024-02-04T07:16:07;11.90;1.00
84335;DHT22;74512;51.190;3.198;2024-02-04T07:18:33;11.90;1.00
84335;DHT22;74512;51.190;3.198;2024-02-04T07:20:58;11.80;1.00
84335;DHT22;74512;51.190;3.198;2024-02-04T07:23:24;11.90;1.00
84335;DHT22;74512;51.190;3.198;2024-02-04T07:25:50;12.10;1.00
84335;DHT22;74512;51.190;3.198;2024-02-04T07:28:15;12.00;1.00
84335;DHT22;74512;51.190;3.198;2024-02-04T07:30:41;11.90;1.00
84335;DHT22;74512;51.190;3.198;2024-02-04T07:33:07;11.90;1.00
84335;DHT22;74512;51.190;3.198;2024-02-04T07:35:32;11.90;1.00
84335;DHT22;74512;51.190;3.198;2024-02-04T07:37:58;11.90;1.00
84335;DHT22;74512;51.190;3.198;2024-02-04T07:40:24;11.90;1.00
84335;DHT22;74512;51.190;3.198;2024-02-04T07:42:49;11.90;1.00
84335;DHT22;74512;51.190;3.198;2024-02-04T07:45:15;11.90;1.00
84335;DHT22;74512;51.190;3.198;2024-02-04T07:47:41;12.00;1.00
84335;DHT22;74512;51.190;3.198;2024-02-04T07:50:07;11.90;1.00
84335;DHT22;74512;51.190;3.198;2024-02-04T07:52:33;11.90;1.00
84335;DHT22;74512;51.190;3.198;2024-02-04T07:54:58;11.90;1.00
84335;DHT22;74512;51.190;3.198;2024-02-04T07:57:24;11.90;1.00
84335;DHT22;74512;51.190;3.198;2024-02-04T07:59:50;11.90;1.00
84335;DHT22;74512;51.190;3.198;2024-02-04T08:02:15;11.80;1.00
84335;DHT22;74512;51.190;3.198;2024-02-04T08:04:41;11.70;1.00
84335;DHT22;74512;51.190;3.198;2024-02-04T08:07:07;11.70;1.00
84335;DHT22;74512;51.190;3.198;2024-02-04T08:09:32;11.70;1.00
84335;DHT22;74512;51.190;3.198;2024-02-04T08:11:58;11.70;1.00
84335;DHT22;74512;51.190;3.198;2024-02-04T08:14:24;11.70;1.00
84335;DHT22;74512;51.190;3.198;2024-02-04T08:16:49;11.80;1.00
84335;DHT22;74512;51.190;3.198;2024-02-04T08:19:16;11.80;1.00
84335;DHT22;74512;51.190;3.198;2024-02-04T08:21:41;11.80;1.00
84335;DHT22;74512;51.190;3.198;2024-02-04T08:24:07;11.80;1.00
84335;DHT22;74512;51.190;3.198;2024-02-04T08:26:33;11.80;1.00
84335;DHT22;74512;51.190;3.198;2024-02-04T08:28:59;11.80;1.00
84335;DHT22;74512;51.190;3.198;2024-02-04T08:31:25;11.80;1.00
84335;DHT22;74512;51.190;3.198;2024-02-04T08:33:51;11.70;1.00
84335;DHT22;74512;51.190;3.198;2024-02-04T08:36:18;11.80;1.00
84335;DHT22;74512;51.190;3.198;2024-02-04T08:38:44;11.80;1.00
84335;DHT22;74512;51.190;3.198;2024-02-04T08:41:10;11.80;1.00
84335;DHT22;74512;51.190;3.198;2024-02-04T08:43:35;11.80;1.00
84335;DHT22;74512;51.190;3.198;2024-02-04T08:46:01;11.90;1.00
84335;DHT22;74512;51.190;3.198;2024-02-04T08:48:27;11.90;1.00
84335;DHT22;74512;51.190;3.198;2024-02-04T08:50:52;11.90;1.00
84335;DHT22;74512;51.190;3.198;2024-02-04T08:53:20;12.00;1.00
84335;DHT22;74512;51.190;3.198;2024-02-04T08:55:46;12.00;1.00
84335;DHT22;74512;51.190;3.198;2024-02-04T08:58:12;11.90;1.00
84335;DHT22;74512;51.190;3.198;2024-02-04T09:00:37;11.90;1.00
84335;DHT22;74512;51.190;3.198;2024-02-04T09:03:03;11.90;1.00
84335;DHT22;74512;51.190;3.198;2024-02-04T09:05:29;12.00;1.00
84335;DHT22;74512;51.190;3.198;2024-02-04T09:07:55;12.00;1.00
84335;DHT22;74512;51.190;3.198;2024-02-04T09:10:21;12.00;1.00
84335;DHT22;74512;51.190;3.198;2024-02-04T09:12:48;12.00;1.00
84335;DHT22;74512;51.190;3.198;2024-02-04T09:15:13;12.00;1.00
84335;DHT22;74512;51.190;3.198;2024-02-04T09:17:39;12.00;1.00
84335;DHT22;74512;51.190;3.198;2024-02-04T09:20:05;12.10;1.00
84335;DHT22;74512;51.190;3.198;2024-02-04T09:22:31;12.00;1.00
84335;DHT22;74512;51.190;3.198;2024-02-04T09:24:57;11.90;1.00
84335;DHT22;74512;51.190;3.198;2024-02-04T09:27:22;11.80;1.00
84335;DHT22;74512;51.190;3.198;2024-02-04T09:29:48;11.70;1.00
84335;DHT22;74512;51.190;3.198;2024-02-04T09:32:14;11.90;1.00
84335;DHT22;74512;51.190;3.198;2024-02-04T09:34:39;12.00;1.00
84335;DHT22;74512;51.190;3.198;2024-02-04T09:37:05;12.00;1.00
84335;DHT22;74512;51.190;3.198;2024-02-04T09:39:32;12.10;1.00
84335;DHT22;74512;51.190;3.198;2024-02-04T09:41:58;12.10;1.00
84335;DHT22;74512;51.190;3.198;2024-02-04T09:44:25;12.20;1.00
84335;DHT22;74512;51.190;3.198;2024-02-04T09:46:51;12.20;1.00
84335;DHT22;74512;51.190;3.198;2024-02-04T09:49:17;12.20;1.00
84335;DHT22;74512;51.190;3.198;2024-02-04T09:51:44;12.20;1.00
84335;DHT22;74512;51.190;3.198;2024-02-04T09:54:10;12.30;1.00
84335;DHT22;74512;51.190;3.198;2024-02-04T09:56:38;12.30;1.00
84335;DHT22;74512;51.190;3.198;2024-02-04T09:59:04;12.40;1.00
84335;DHT22;74512;51.190;3.198;2024-02-04T10:01:31;12.30;1.00
84335;DHT22;74512;51.190;3.198;2024-02-04T10:03:57;12.30;1.00
84335;DHT22;74512;51.190;3.198;2024-02-04T10:06:23;12.40;1.00
84335;DHT22;74512;51.190;3.198;2024-02-04T10:08:49;12.40;1.00
84335;DHT22;74512;51.190;3.198;2024-02-04T10:11:15;12.40;1.00
84335;DHT22;74512;51.190;3.198;2024-02-04T10:13:44;12.50;1.00
84335;DHT22;74512;51.190;3.198;2024-02-04T10:16:10;12.40;1.00
84335;DHT22;74512;51.190;3.198;2024-02-04T10:18:37;12.30;1.00
84335;DHT22;74512;51.190;3.198;2024-02-04T10:21:02;12.40;1.00
84335;DHT22;74512;51.190;3.198;2024-02-04T10:23:28;12.40;1.00
84335;DHT22;74512;51.190;3.198;2024-02-04T10:26:01;12.50;1.00
84335;DHT22;74512;51.190;3.198;2024-02-04T10:28:27;12.50;1.00
84335;DHT22;74512;51.190;3.198;2024-02-04T10:30:52;12.50;1.00
84335;DHT22;74512;51.190;3.198;2024-02-04T10:33:18;12.60;1.00
84335;DHT22;74512;51.190;3.198;2024-02-04T10:35:45;12.40;1.00
84335;DHT22;74512;51.190;3.198;2024-02-04T10:38:11;12.50;1.00
84335;DHT22;74512;51.190;3.198;2024-02-04T10:40:37;12.50;1.00
84335;DHT22;74512;51.190;3.198;2024-02-04T10:43:05;12.50;1.00
84335;DHT22;74512;51.190;3.198;2024-02-04T10:45:32;12.50;1.00
84335;DHT22;74512;51.190;3.198;2024-02-04T10:48:01;12.60;1.00
84335;DHT22;74512;51.190;3.198;2024-02-04T10:50:28;12.40;1.00
84335;DHT22;74512;51.190;3.198;2024-02-04T10:52:58;12.40;1.00
84335;DHT22;74512;51.190;3.198;2024-02-04T10:55:30;12.60;1.00
84335;DHT22;74512;51.190;3.198;2024-02-04T10:57:57;12.50;1.00
84335;DHT22;74512;51.190;3.198;2024-02-04T11:00:23;12.60;1.00
84335;DHT22;74512;51.190;3.198;2024-02-04T11:02:49;12.70;1.00
84335;DHT22;74512;51.190;3.198;2024-02-04T11:05:17;12.80;1.00
84335;DHT22;74512;51.190;3.198;2024-02-04T11:07:43;13.00;1.00
84335;DHT22;74512;51.190;3.198;2024-02-04T11:10:10;13.10;1.00
84335;DHT22;74512;51.190;3.198;2024-02-04T11:12:38;13.20;1.00
84335;DHT22;74512;51.190;3.198;2024-02-04T11:15:07;13.10;1.00
84335;DHT22;74512;51.190;3.198;2024-02-04T11:20:13;13.00;1.00
84335;DHT22;74512;51.190;3.198;2024-02-04T11:25:45;13.00;1.00
84335;DHT22;74512;51.190;3.198;2024-02-04T11:28:12;12.90;1.00
84335;DHT22;74512;51.190;3.198;2024-02-04T11:30:38;12.90;1.00
84335;DHT22;74512;51.190;3.198;2024-02-04T11:33:05;12.90;1.00
84335;DHT22;74512;51.190;3.198;2024-02-04T11:35:34;12.80;1.00
84335;DHT22;74512;51.190;3.198;2024-02-04T11:38:00;12.90;1.00
84335;DHT22;74512;51.190;3.198;2024-02-04T11:40:37;12.90;1.00
84335;DHT22;74512;51.190;3.198;2024-02-04T11:43:12;12.80;1.00
84335;DHT22;74512;51.190;3.198;2024-02-04T11:45:42;12.80;1.00
84335;DHT22;74512;51.190;3.198;2024-02-04T11:48:11;12.80;1.00
84335;DHT22;74512;51.190;3.198;2024-02-04T11:50:38;12.80;1.00
84335;DHT22;74512;51.190;3.198;2024-02-04T11:53:11;12.80;1.00
84335;DHT22;74512;51.190;3.198;2024-02-04T11:55:39;12.70;1.00
84335;DHT22;74512;51.190;3.198;2024-02-04T11:58:05;12.70;1.00
84335;DHT22;74512;51.190;3.198;2024-02-04T12:00:33;12.70;1.00
84335;DHT22;74512;51.190;3.198;2024-02-04T12:03:00;12.70;1.00
84335;DHT22;74512;51.190;3.198;2024-02-04T12:05:27;12.60;1.00
84335;DHT22;74512;51.190;3.198;2024-02-04T12:07:53;12.80;1.00
84335;DHT22;74512;51.190;3.198;2024-02-04T12:10:20;12.80;1.00
84335;DHT22;74512;51.190;3.198;2024-02-04T12:12:46;12.80;1.00
84335;DHT22;74512;51.190;3.198;2024-02-04T12:15:12;12.80;1.00
84335;DHT22;74512;51.190;3.198;2024-02-04T12:17:38;12.70;1.00
84335;DHT22;74512;51.190;3.198;2024-02-04T12:20:04;12.80;1.00
84335;DHT22;74512;51.190;3.198;2024-02-04T12:22:31;12.80;1.00
84335;DHT22;74512;51.190;3.198;2024-02-04T12:24:57;12.80;1.00
84335;DHT22;74512;51.190;3.198;2024-02-04T12:27:24;12.80;1.00
84335;DHT22;74512;51.190;3.198;2024-02-04T12:29:51;12.80;1.00
84335;DHT22;74512;51.190;3.198;2024-02-04T12:32:17;12.80;1.00
84335;DHT22;74512;51.190;3.198;2024-02-04T12:34:48;12.70;1.00
84335;DHT22;74512;51.190;3.198;2024-02-04T12:37:13;12.80;1.00
84335;DHT22;74512;51.190;3.198;2024-02-04T12:39:39;12.70;1.00
84335;DHT22;74512;51.190;3.198;2024-02-04T12:42:05;12.60;1.00
84335;DHT22;74512;51.190;3.198;2024-02-04T12:44:31;12.70;1.00
84335;DHT22;74512;51.190;3.198;2024-02-04T12:46:56;12.80;1.00
84335;DHT22;74512;51.190;3.198;2024-02-04T12:49:22;12.70;1.00
84335;DHT22;74512;51.190;3.198;2024-02-04T12:51:48;12.70;1.00
84335;DHT22;74512;51.190;3.198;2024-02-04T12:54:15;12.70;1.00
84335;DHT22;74512;51.190;3.198;2024-02-04T12:56:50;12.80;1.00
84335;DHT22;74512;51.190;3.198;2024-02-04T12:59:27;12.70;1.00
84335;DHT22;74512;51.190;3.198;2024-02-04T13:02:03;12.70;1.00
84335;DHT22;74512;51.190;3.198;2024-02-04T13:04:39;12.80;1.00
84335;DHT22;74512;51.190;3.198;2024-02-04T13:07:09;12.80;1.00
84335;DHT22;74512;51.190;3.198;2024-02-04T13:09:35;12.80;1.00
84335;DHT22;74512;51.190;3.198;2024-02-04T13:12:05;12.70;1.00
84335;DHT22;74512;51.190;3.198;2024-02-04T13:14:31;12.70;1.00
84335;DHT22;74512;51.190;3.198;2024-02-04T13:16:57;12.70;1.00
84335;DHT22;74512;51.190;3.198;2024-02-04T13:19:23;12.60;1.00
84335;DHT22;74512;51.190;3.198;2024-02-04T13:21:49;12.80;1.00
84335;DHT22;74512;51.190;3.198;2024-02-04T13:24:14;12.70;1.00
84335;DHT22;74512;51.190;3.198;2024-02-04T13:26:40;12.80;1.00
84335;DHT22;74512;51.190;3.198;2024-02-04T13:29:06;12.80;1.00
84335;DHT22;74512;51.190;3.198;2024-02-04T13:31:31;12.80;1.00
84335;DHT22;74512;51.190;3.198;2024-02-04T13:33:57;12.80;1.00
84335;DHT22;74512;51.190;3.198;2024-02-04T13:36:24;12.80;1.00
84335;DHT22;74512;51.190;3.198;2024-02-04T13:38:49;12.70;1.00
84335;DHT22;74512;51.190;3.198;2024-02-04T13:41:15;12.70;1.00
84335;DHT22;74512;51.190;3.198;2024-02-04T13:43:41;12.80;1.00
84335;DHT22;74512;51.190;3.198;2024-02-04T13:46:09;12.90;1.00
84335;DHT22;74512;51.190;3.198;2024-02-04T13:48:34;12.80;1.00
84335;DHT22;74512;51.190;3.198;2024-02-04T13:51:00;12.80;1.00
84335;DHT22;74512;51.190;3.198;2024-02-04T13:53:26;12.80;1.00
84335;DHT22;74512;51.190;3.198;2024-02-04T13:55:52;12.70;1.00
84335;DHT22;74512;51.190;3.198;2024-02-04T13:58:18;12.80;1.00
84335;DHT22;74512;51.190;3.198;2024-02-04T14:00:44;12.80;1.00
84335;DHT22;74512;51.190;3.198;2024-02-04T14:03:10;12.80;1.00
84335;DHT22;74512;51.190;3.198;2024-02-04T14:05:38;12.80;1.00
84335;DHT22;74512;51.190;3.198;2024-02-04T14:08:05;12.80;1.00
84335;DHT22;74512;51.190;3.198;2024-02-04T14:10:31;12.90;1.00
84335;DHT22;74512;51.190;3.198;2024-02-04T14:12:57;12.80;1.00
84335;DHT22;74512;51.190;3.198;2024-02-04T14:15:23;12.80;1.00
84335;DHT22;74512;51.190;3.198;2024-02-04T14:17:48;12.80;1.00
84335;DHT22;74512;51.190;3.198;2024-02-04T14:20:14;12.80;1.00
84335;DHT22;74512;51.190;3.198;2024-02-04T14:22:40;12.80;1.00
84335;DHT22;74512;51.190;3.198;2024-02-04T14:25:06;12.80;1.00
84335;DHT22;74512;51.190;3.198;2024-02-04T14:27:32;12.80;1.00
84335;DHT22;74512;51.190;3.198;2024-02-04T14:29:58;12.80;1.00
84335;DHT22;74512;51.190;3.198;2024-02-04T14:32:24;12.70;1.00
84335;DHT22;74512;51.190;3.198;2024-02-04T14:34:50;12.80;1.00
84335;DHT22;74512;51.190;3.198;2024-02-04T14:37:16;12.80;1.00
84335;DHT22;74512;51.190;3.198;2024-02-04T14:39:41;12.80;1.00
84335;DHT22;74512;51.190;3.198;2024-02-04T14:42:10;12.80;1.00
84335;DHT22;74512;51.190;3.198;2024-02-04T14:44:36;12.70;1.00
84335;DHT22;74512;51.190;3.198;2024-02-04T14:47:01;12.70;1.00
84335;DHT22;74512;51.190;3.198;2024-02-04T14:49:27;12.70;1.00
84335;DHT22;74512;51.190;3.198;2024-02-04T14:51:53;12.70;1.00
84335;DHT22;74512;51.190;3.198;2024-02-04T14:54:18;12.70;1.00
84335;DHT22;74512;51.190;3.198;2024-02-04T14:56:44;12.80;1.00
84335;DHT22;74512;51.190;3.198;2024-02-04T14:59:13;12.70;1.00
84335;DHT22;74512;51.190;3.198;2024-02-04T15:01:39;12.80;1.00
84335;DHT22;74512;51.190;3.198;2024-02-04T15:04:04;12.70;1.00
84335;DHT22;74512;51.190;3.198;2024-02-04T15:06:30;12.80;1.00
84335;DHT22;74512;51.190;3.198;2024-02-04T15:08:58;12.60;1.00
84335;DHT22;74512;51.190;3.198;2024-02-04T15:11:25;12.60;1.00
84335;DHT22;74512;51.190;3.198;2024-02-04T15:13:52;12.60;1.00
84335;DHT22;74512;51.190;3.198;2024-02-04T15:16:18;12.60;1.00
84335;DHT22;74512;51.190;3.198;2024-02-04T15:18:44;12.60;1.00
84335;DHT22;74512;51.190;3.198;2024-02-04T15:21:10;12.60;1.00
84335;DHT22;74512;51.190;3.198;2024-02-04T15:23:36;12.60;1.00
84335;DHT22;74512;51.190;3.198;2024-02-04T15:26:03;12.70;1.00
84335;DHT22;74512;51.190;3.198;2024-02-04T15:28:33;12.60;1.00
84335;DHT22;74512;51.190;3.198;2024-02-04T15:30:59;12.70;1.00
84335;DHT22;74512;51.190;3.198;2024-02-04T15:33:25;12.70;1.00
84335;DHT22;74512;51.190;3.198;2024-02-04T15:35:53;12.60;1.00
84335;DHT22;74512;51.190;3.198;2024-02-04T15:38:19;12.60;1.00
84335;DHT22;74512;51.190;3.198;2024-02-04T15:40:45;12.70;1.00
84335;DHT22;74512;51.190;3.198;2024-02-04T15:43:12;12.70;1.00
84335;DHT22;74512;51.190;3.198;2024-02-04T15:45:40;12.60;1.00
84335;DHT22;74512;51.190;3.198;2024-02-04T15:48:06;12.70;1.00